createdAt,value
2018-11-01T13:08:11.692Z,46.90
2018-11-01T13:10:41.045Z,47.30
2018-11-01T13:13:10.233Z,47.40
2018-11-01T13:15:39.805Z,47.50
2018-11-01T13:18:09.215Z,47.80
2018-11-01T13:20:38.580Z,47.00
2018-11-01T13:23:08.009Z,47.10
2018-11-01T13:25:37.304Z,47.60
2018-11-01T13:28:08.118Z,48.20
2018-11-01T13:30:37.649Z,48.50
2018-11-01T13:33:07.053Z,48.60
2018-11-01T13:35:36.401Z,48.90
2018-11-01T13:38:05.874Z,49.70
2018-11-01T13:40:35.563Z,49.40
2018-11-01T13:43:04.871Z,49.50
2018-11-01T13:45:34.304Z,49.40
2018-11-01T13:48:03.681Z,49.60
2018-11-01T13:50:32.880Z,49.90
2018-11-01T13:53:02.660Z,50.30
2018-11-01T13:55:32.089Z,50.10
2018-11-01T13:58:01.580Z,50.30
2018-11-01T14:00:30.896Z,50.60
2018-11-01T14:03:00.567Z,50.70
2018-11-01T14:05:29.946Z,51.00
2018-11-01T14:07:59.447Z,51.20
2018-11-01T14:10:28.717Z,51.40
2018-11-01T14:12:58.117Z,51.70
2018-11-01T14:15:27.511Z,52.10
2018-11-01T14:17:57.042Z,52.40
2018-11-01T14:20:26.430Z,52.60
2018-11-01T14:22:56.166Z,52.60
2018-11-01T14:25:25.672Z,52.60
2018-11-01T14:27:54.948Z,52.60
2018-11-01T14:30:24.372Z,53.30
2018-11-01T14:32:53.983Z,52.30
2018-11-01T14:35:23.341Z,52.10
2018-11-01T14:37:52.691Z,51.90
2018-11-01T14:40:22.167Z,51.90
2018-11-01T14:42:51.571Z,51.70
2018-11-01T14:45:20.827Z,51.60
2018-11-01T14:47:50.156Z,51.50
2018-11-01T14:50:19.450Z,51.50
2018-11-01T14:52:49.254Z,51.50
2018-11-01T14:55:19.114Z,51.60
2018-11-01T14:57:48.686Z,51.70
2018-11-01T15:00:16.790Z,51.80
2018-11-01T15:02:46.216Z,52.10
2018-11-01T15:05:15.921Z,52.40
2018-11-01T15:07:45.221Z,52.50
2018-11-01T15:10:15.643Z,52.80
2018-11-01T15:12:45.783Z,52.90
2018-11-01T15:15:15.156Z,53.00
2018-11-01T15:17:44.310Z,53.30
2018-11-01T15:20:13.449Z,53.20
2018-11-01T15:22:42.726Z,53.20
2018-11-01T15:25:12.655Z,53.90
2018-11-01T15:27:41.985Z,53.20
2018-11-01T15:30:15.199Z,53.30
2018-11-01T15:32:44.965Z,53.20
2018-11-01T15:35:14.274Z,53.30
2018-11-01T15:37:43.687Z,53.50
2018-11-01T15:40:13.618Z,53.60
2018-11-01T15:42:43.493Z,53.80
2018-11-01T15:45:13.645Z,53.90
2018-11-01T15:47:43.307Z,54.00
2018-11-01T15:50:13.760Z,54.30
2018-11-01T15:52:43.281Z,54.30
2018-11-01T15:55:12.660Z,54.50
2018-11-01T15:57:42.229Z,54.60
2018-11-01T16:00:13.182Z,54.70
2018-11-01T16:02:43.768Z,54.80
2018-11-01T16:05:14.050Z,54.70
2018-11-01T16:07:43.569Z,54.90
2018-11-01T16:10:13.330Z,55.00
2018-11-01T16:12:42.684Z,55.00
2018-11-01T16:15:16.272Z,54.90
2018-11-01T16:17:45.797Z,55.00
2018-11-01T16:20:15.021Z,54.80
2018-11-01T16:22:44.378Z,54.90
2018-11-01T16:25:13.896Z,55.00
2018-11-01T16:27:43.327Z,54.90
2018-11-01T16:30:12.636Z,54.90
2018-11-01T16:32:42.004Z,55.10
2018-11-01T16:35:11.202Z,55.20
2018-11-01T16:37:40.710Z,55.60
2018-11-01T16:40:11.787Z,55.80
2018-11-01T16:42:41.348Z,56.10
2018-11-01T16:45:13.200Z,56.40
2018-11-01T16:47:42.806Z,56.80
2018-11-01T16:50:12.525Z,57.10
2018-11-01T16:52:42.683Z,57.30
2018-11-01T16:55:12.473Z,57.50
2018-11-01T16:57:42.018Z,57.70
2018-11-01T17:00:12.621Z,57.90
2018-11-01T17:02:42.224Z,58.10
2018-11-01T17:05:12.445Z,58.30
2018-11-01T17:07:42.028Z,58.40
2018-11-01T17:10:12.656Z,58.50
2018-11-01T17:12:42.185Z,58.50
2018-11-01T17:15:13.268Z,58.50
2018-11-01T17:17:42.554Z,58.60
2018-11-01T17:20:12.032Z,58.90
2018-11-01T17:22:41.856Z,59.00
2018-11-01T17:25:11.726Z,59.00
2018-11-01T17:27:41.164Z,59.10
2018-11-01T17:30:11.015Z,59.00
2018-11-01T17:32:51.237Z,59.10
2018-11-01T17:35:20.749Z,58.90
2018-11-01T17:37:50.048Z,59.00
2018-11-01T17:40:19.543Z,59.20
2018-11-01T17:42:48.718Z,59.40
2018-11-01T17:45:17.926Z,59.60
2018-11-01T17:47:47.165Z,59.60
2018-11-01T17:50:17.378Z,59.80
2018-11-01T17:52:46.983Z,59.90
2018-11-01T17:55:16.693Z,60.00
2018-11-01T17:57:46.087Z,59.90
2018-11-01T18:00:16.108Z,60.00
2018-11-01T18:02:45.523Z,59.90
2018-11-01T18:05:14.633Z,60.00
2018-11-01T18:07:44.028Z,60.00
2018-11-01T18:10:14.027Z,60.00
2018-11-01T18:12:43.867Z,59.80
2018-11-01T18:15:13.190Z,59.90
2018-11-01T18:17:42.746Z,59.90
2018-11-01T18:20:13.205Z,59.70
2018-11-01T18:22:42.680Z,59.70
2018-11-01T18:25:13.317Z,59.60
2018-11-01T18:27:43.202Z,59.70
2018-11-01T18:30:15.486Z,59.70
2018-11-01T18:32:45.570Z,59.70
2018-11-01T18:35:14.942Z,59.80
2018-11-01T18:37:44.262Z,59.90
2018-11-01T18:40:15.428Z,59.90
2018-11-01T18:42:45.021Z,59.80
2018-11-01T18:45:15.270Z,59.70
2018-11-01T18:47:45.114Z,59.80
2018-11-01T18:50:15.789Z,59.70
2018-11-01T18:52:45.425Z,59.90
2018-11-01T18:55:21.735Z,59.90
2018-11-01T18:57:51.124Z,60.00
2018-11-01T19:00:20.556Z,60.10
2018-11-01T19:02:50.132Z,60.30
2018-11-01T19:05:19.788Z,60.50
2018-11-01T19:07:49.084Z,60.60
2018-11-01T19:10:18.480Z,60.90
2018-11-01T19:12:47.940Z,60.90
2018-11-01T19:15:17.425Z,61.20
2018-11-01T19:17:46.768Z,61.40
2018-11-01T19:20:16.347Z,61.70
2018-11-01T19:22:45.669Z,62.00
2018-11-01T19:25:15.069Z,62.40
2018-11-01T19:27:44.235Z,62.80
2018-11-01T19:30:13.972Z,63.10
2018-11-01T19:32:43.755Z,63.40
2018-11-01T19:35:13.805Z,63.60
2018-11-01T19:37:43.104Z,63.90
2018-11-01T19:40:14.599Z,63.90
2018-11-01T19:42:44.370Z,63.90
2018-11-01T19:45:13.810Z,63.90
2018-11-01T19:47:43.671Z,64.00
2018-11-01T19:50:14.233Z,64.70
2018-11-01T19:52:43.485Z,64.20
2018-11-01T19:55:13.339Z,64.20
2018-11-01T19:57:43.262Z,64.40
2018-11-01T20:00:17.133Z,64.70
2018-11-01T20:02:47.482Z,65.00
2018-11-01T20:05:16.993Z,65.00
2018-11-01T20:07:46.430Z,65.20
2018-11-01T20:10:16.403Z,65.60
2018-11-01T20:12:45.907Z,65.70
2018-11-01T20:15:15.114Z,65.90
2018-11-01T20:17:44.521Z,66.40
2018-11-01T20:20:14.548Z,66.80
2018-11-01T20:22:45.089Z,67.20
2018-11-01T20:25:14.534Z,67.20
2018-11-01T20:27:44.089Z,67.30
2018-11-01T20:30:14.617Z,67.40
2018-11-01T20:32:44.513Z,67.50
2018-11-01T20:35:14.712Z,67.50
2018-11-01T20:37:44.401Z,67.60
2018-11-01T20:40:13.840Z,67.80
2018-11-01T20:42:43.978Z,68.00
2018-11-01T20:45:14.018Z,68.10
2018-11-01T20:47:43.453Z,68.40
2018-11-01T20:50:13.670Z,68.40
2018-11-01T20:52:42.981Z,68.70
2018-11-01T20:55:12.242Z,68.60
2018-11-01T20:57:41.776Z,68.60
2018-11-01T21:00:13.520Z,68.70
2018-11-01T21:02:42.996Z,68.90
2018-11-01T21:05:12.667Z,69.30
2018-11-01T21:07:41.725Z,69.50
2018-11-01T21:10:11.519Z,69.90
2018-11-01T21:12:41.323Z,70.00
2018-11-01T21:15:12.731Z,70.10
2018-11-01T21:17:42.377Z,70.30
2018-11-01T21:20:11.915Z,70.30
2018-11-01T21:22:41.430Z,70.30
2018-11-01T21:25:11.825Z,70.30
2018-11-01T21:27:42.144Z,70.40
2018-11-01T21:30:11.766Z,70.50
2018-11-01T21:32:41.156Z,70.50
2018-11-01T21:35:10.789Z,70.50
2018-11-01T21:37:39.958Z,70.60
2018-11-01T21:40:10.512Z,70.60
2018-11-01T21:42:40.269Z,70.50
2018-11-01T21:45:11.809Z,70.60
2018-11-01T21:47:41.420Z,71.00
2018-11-01T21:50:11.296Z,71.00
2018-11-01T21:52:40.912Z,71.30
2018-11-01T21:55:10.391Z,71.30
2018-11-01T21:57:39.809Z,71.30
2018-11-01T22:00:10.458Z,72.00
2018-11-01T22:02:40.557Z,71.40
2018-11-01T22:05:10.241Z,71.40
2018-11-01T22:07:40.217Z,71.40
2018-11-01T22:10:10.111Z,71.50
2018-11-01T22:12:39.783Z,71.40
2018-11-01T22:15:10.763Z,71.40
2018-11-01T22:17:40.664Z,71.30
2018-11-01T22:20:10.669Z,71.50
2018-11-01T22:22:40.615Z,71.40
2018-11-01T22:25:09.943Z,71.50
2018-11-01T22:27:39.492Z,71.50
2018-11-01T22:30:10.036Z,71.60
2018-11-01T22:32:39.626Z,71.50
2018-11-01T22:35:09.858Z,71.60
2018-11-01T22:37:40.071Z,71.50
2018-11-01T22:40:09.372Z,71.50
2018-11-01T22:42:38.956Z,71.50
2018-11-01T22:45:09.838Z,71.60
2018-11-01T22:47:39.447Z,71.50
2018-11-01T22:50:09.856Z,71.60
2018-11-01T22:52:39.742Z,71.50
2018-11-01T22:55:10.330Z,71.50
2018-11-01T22:57:40.004Z,71.70
2018-11-01T23:00:16.310Z,71.70
2018-11-01T23:02:45.992Z,71.80
2018-11-01T23:05:15.480Z,71.80
2018-11-01T23:07:44.958Z,71.90
2018-11-01T23:10:15.528Z,72.00
2018-11-01T23:12:45.041Z,72.20
2018-11-01T23:15:14.848Z,72.30
2018-11-01T23:17:44.353Z,72.30
2018-11-01T23:20:14.348Z,72.40
2018-11-01T23:22:43.616Z,72.30
2018-11-01T23:25:12.868Z,72.40
2018-11-01T23:27:42.633Z,72.50
2018-11-01T23:30:11.958Z,72.40
2018-11-01T23:32:41.294Z,72.40
2018-11-01T23:35:10.568Z,72.40
2018-11-01T23:37:57.269Z,72.40
2018-11-01T23:40:44.462Z,72.50
2018-11-01T23:43:31.304Z,72.90
2018-11-01T23:46:18.404Z,73.80
2018-11-01T23:48:50.339Z,73.40
2018-11-01T23:51:20.016Z,73.70
2018-11-01T23:53:50.542Z,74.00
2018-11-01T23:56:20.256Z,74.20
2018-11-01T23:58:49.740Z,74.40
